Time;durP1;ratioP1;P1;durP2;ratioP2;P2;SDS_P1;SDS_P2;PMS_P1;PMS_P2;Temp;Humidity;BMP_temperature;BMP_pressure;BME280_temperature;BME280_humidity;BME280_pressure;Samples;Min_cycle;Max_cycle;Signal;HPM_P1;HPM_P2
2023/11/03 00:01:51;;;;;;;0.70;0.40;;;9.90;99.90;;;;;;5096683;28;20032;-81
2023/11/03 00:04:16;;;;;;;3.63;0.60;;;9.90;99.90;;;;;;5097843;28;20038;-81
2023/11/03 00:06:45;;;;;;;1.73;0.50;;;9.90;99.90;;;;;;5096003;28;20110;-81
2023/11/03 00:09:14;;;;;;;1.90;0.60;;;9.90;99.90;;;;;;5096894;28;20514;-81
2023/11/03 00:11:42;;;;;;;4.13;0.60;;;9.90;99.90;;;;;;5096496;28;20036;-82
2023/11/03 00:14:07;;;;;;;3.28;0.52;;;9.90;99.90;;;;;;5096802;28;20027;-82
2023/11/03 00:16:33;;;;;;;2.00;0.50;;;9.90;99.90;;;;;;5096129;28;20028;-82
2023/11/03 00:19:00;;;;;;;2.35;0.75;;;9.90;99.90;;;;;;5096716;28;20431;-82
2023/11/03 00:21:34;;;;;;;3.67;0.47;;;9.90;99.90;;;;;;5096852;28;20446;-82
2023/11/03 00:24:00;;;;;;;1.33;0.50;;;10.00;99.90;;;;;;5096803;28;20024;-82
2023/11/03 00:26:25;;;;;;;2.45;0.50;;;10.00;99.90;;;;;;5096411;28;20119;-82
2023/11/03 00:28:51;;;;;;;3.58;0.50;;;10.00;99.90;;;;;;5095886;28;20055;-82
2023/11/03 00:31:16;;;;;;;4.45;0.45;;;10.10;99.90;;;;;;5097268;28;20027;-82
2023/11/03 00:33:44;;;;;;;1.65;0.80;;;10.00;99.90;;;;;;5095972;28;20078;-82
2023/11/03 00:36:10;;;;;;;3.30;0.77;;;10.10;99.90;;;;;;5097017;28;20016;-82
2023/11/03 00:38:36;;;;;;;3.47;0.80;;;10.10;99.90;;;;;;5095961;28;20060;-81
2023/11/03 00:41:02;;;;;;;1.50;0.40;;;10.10;99.90;;;;;;5097264;28;20531;-81
2023/11/03 00:43:28;;;;;;;1.63;0.50;;;10.10;99.90;;;;;;5096209;28;20032;-81
2023/11/03 00:45:54;;;;;;;3.25;0.57;;;10.10;99.90;;;;;;5095989;28;20039;-81
2023/11/03 00:48:20;;;;;;;2.15;0.43;;;10.00;99.90;;;;;;5096254;28;20032;-81
2023/11/03 00:50:46;;;;;;;1.20;0.45;;;10.00;99.90;;;;;;5096301;28;20484;-81
2023/11/03 00:53:11;;;;;;;1.40;0.45;;;9.90;99.90;;;;;;5095934;28;20028;-81
2023/11/03 00:55:37;;;;;;;2.33;0.50;;;9.90;99.90;;;;;;5096182;28;20103;-81
2023/11/03 00:58:03;;;;;;;2.75;0.60;;;9.90;99.90;;;;;;5095865;28;20111;-81
2023/11/03 01:00:34;;;;;;;3.08;0.52;;;9.90;99.90;;;;;;5095709;28;20491;-81
2023/11/03 01:03:00;;;;;;;3.33;0.80;;;9.90;99.90;;;;;;5097090;28;20028;-81
2023/11/03 01:05:26;;;;;;;2.40;0.40;;;9.90;99.90;;;;;;5095415;28;20032;-81
2023/11/03 01:07:52;;;;;;;1.58;0.30;;;9.90;99.90;;;;;;5095657;28;20434;-82
2023/11/03 01:10:18;;;;;;;4.22;0.73;;;9.90;99.90;;;;;;5095788;28;20123;-81
2023/11/03 01:12:45;;;;;;;2.53;0.40;;;9.90;99.90;;;;;;5096334;28;20095;-81
2023/11/03 01:15:12;;;;;;;2.75;0.50;;;9.90;99.90;;;;;;5096509;28;20441;-82
2023/11/03 01:17:39;;;;;;;2.60;0.50;;;9.90;99.90;;;;;;5095268;28;20029;-82
2023/11/03 01:20:12;;;;;;;1.73;0.65;;;9.90;99.90;;;;;;5095523;28;20031;-82
2023/11/03 01:22:38;;;;;;;2.45;0.40;;;9.90;99.90;;;;;;5095996;28;20039;-82
2023/11/03 01:25:05;;;;;;;3.00;0.50;;;9.80;99.90;;;;;;5094806;28;20031;-82
2023/11/03 01:27:32;;;;;;;2.67;0.50;;;9.80;99.90;;;;;;5087006;28;20029;-82
2023/11/03 01:29:57;;;;;;;1.48;0.50;;;9.80;99.90;;;;;;5077816;28;20095;-82
2023/11/03 01:32:23;;;;;;;1.92;1.20;;;9.80;99.90;;;;;;5096404;28;20024;-82
2023/11/03 01:34:50;;;;;;;4.45;0.50;;;9.80;99.90;;;;;;5094617;28;20024;-82
2023/11/03 01:37:16;;;;;;;1.02;0.57;;;9.80;99.90;;;;;;5076056;28;20045;-82
2023/11/03 01:39:41;;;;;;;1.65;0.40;;;9.80;99.90;;;;;;5074415;28;20020;-81
2023/11/03 01:42:07;;;;;;;1.20;0.57;;;9.80;99.90;;;;;;5075046;28;20078;-82
2023/11/03 01:44:34;;;;;;;1.90;0.63;;;9.80;99.90;;;;;;5074187;28;20033;-84
2023/11/03 01:47:00;;;;;;;1.58;0.63;;;9.70;99.90;;;;;;5074690;28;20063;-85
2023/11/03 01:49:25;;;;;;;2.60;0.45;;;9.70;99.90;;;;;;5074895;28;20021;-85
2023/11/03 01:51:52;;;;;;;2.22;0.60;;;9.70;99.90;;;;;;5074515;28;20035;-84
2023/11/03 01:54:18;;;;;;;1.55;0.50;;;9.70;99.90;;;;;;5074444;28;20025;-84
2023/11/03 01:56:44;;;;;;;2.88;0.40;;;9.70;99.90;;;;;;5075024;28;20028;-85
2023/11/03 01:59:10;;;;;;;2.88;0.57;;;9.60;99.90;;;;;;5074447;28;20078;-83
2023/11/03 02:01:36;;;;;;;1.45;0.40;;;9.60;99.90;;;;;;5074177;28;20081;-82
2023/11/03 02:04:02;;;;;;;1.52;0.60;;;9.60;99.90;;;;;;5075448;28;20028;-82
2023/11/03 02:06:28;;;;;;;1.05;0.40;;;9.60;99.90;;;;;;5075551;28;20032;-82
2023/11/03 02:08:53;;;;;;;7.40;0.88;;;9.60;99.90;;;;;;5073902;28;20077;-82
2023/11/03 02:11:24;;;;;;;2.78;0.40;;;9.70;99.90;;;;;;5075264;28;20109;-82
2023/11/03 02:13:49;;;;;;;1.55;0.45;;;9.70;99.90;;;;;;5074173;28;20024;-82
2023/11/03 02:16:15;;;;;;;2.67;0.70;;;9.70;99.90;;;;;;5073616;28;20174;-83
2023/11/03 02:18:40;;;;;;;2.60;0.85;;;9.70;99.90;;;;;;5074627;28;20029;-82
2023/11/03 02:21:06;;;;;;;2.20;0.50;;;9.80;99.90;;;;;;5074197;28;20032;-82
2023/11/03 02:23:33;;;;;;;1.40;0.50;;;9.80;99.90;;;;;;5073669;28;20047;-82
2023/11/03 02:25:58;;;;;;;3.72;0.50;;;9.80;99.90;;;;;;5073451;28;20481;-82
2023/11/03 02:28:25;;;;;;;1.52;0.45;;;9.80;99.90;;;;;;5073895;28;20029;-82
2023/11/03 02:30:50;;;;;;;2.80;0.40;;;9.70;99.90;;;;;;5073331;28;20028;-82
2023/11/03 02:33:16;;;;;;;1.00;0.45;;;9.80;99.90;;;;;;5074073;28;20386;-82
2023/11/03 02:35:41;;;;;;;5.65;0.80;;;9.80;99.90;;;;;;5073735;28;20029;-82
2023/11/03 02:38:17;;;;;;;3.47;0.60;;;9.80;99.90;;;;;;5112049;27;20886;-83
2023/11/03 02:40:47;;;;;;;1.83;0.40;;;9.80;99.90;;;;;;5093701;28;20024;-83
2023/11/03 02:43:12;;;;;;;1.30;0.50;;;9.80;99.90;;;;;;5112522;28;20055;-83
2023/11/03 02:45:38;;;;;;;1.48;0.50;;;9.80;99.90;;;;;;5093672;28;20015;-84
2023/11/03 02:48:05;;;;;;;2.80;0.60;;;9.80;99.90;;;;;;5093546;28;20027;-83
2023/11/03 02:50:31;;;;;;;0.80;0.32;;;9.80;99.90;;;;;;5093954;28;20453;-84
2023/11/03 02:52:56;;;;;;;1.95;0.40;;;9.80;99.90;;;;;;5110250;28;20035;-84
2023/11/03 02:55:22;;;;;;;3.13;0.50;;;9.80;99.90;;;;;;5111779;28;20023;-84
2023/11/03 02:57:47;;;;;;;1.98;0.70;;;9.80;99.90;;;;;;5093271;28;20020;-84
2023/11/03 03:00:14;;;;;;;2.20;1.02;;;9.80;99.90;;;;;;5110454;28;20028;-83
2023/11/03 03:02:40;;;;;;;2.08;0.60;;;9.80;99.90;;;;;;5110054;28;20035;-84
2023/11/03 03:05:06;;;;;;;0.85;0.40;;;9.80;99.90;;;;;;5093845;28;20024;-83
2023/11/03 03:07:32;;;;;;;2.70;0.75;;;9.80;99.90;;;;;;5093578;28;20028;-83
2023/11/03 03:09:57;;;;;;;5.90;0.85;;;9.80;99.90;;;;;;5109836;28;20382;-83
2023/11/03 03:12:23;;;;;;;2.35;0.70;;;9.90;99.90;;;;;;5093780;28;20085;-83
2023/11/03 03:14:49;;;;;;;1.75;0.47;;;9.90;99.90;;;;;;5092890;28;20449;-84
2023/11/03 03:17:14;;;;;;;1.98;0.52;;;9.90;99.90;;;;;;5110429;28;20364;-84
2023/11/03 03:19:40;;;;;;;5.15;0.30;;;9.90;99.90;;;;;;5109875;28;20456;-84
2023/11/03 03:22:05;;;;;;;1.60;0.45;;;9.80;99.90;;;;;;5093114;28;20024;-83
2023/11/03 03:24:31;;;;;;;1.25;0.50;;;9.90;99.90;;;;;;5093043;28;20019;-83
2023/11/03 03:26:57;;;;;;;4.72;0.50;;;9.90;99.90;;;;;;5092614;28;20115;-83
2023/11/03 03:29:22;;;;;;;4.90;0.80;;;9.90;99.90;;;;;;5110314;28;20097;-83
2023/11/03 03:31:48;;;;;;;4.05;0.60;;;9.90;99.90;;;;;;5110650;28;20019;-84
2023/11/03 03:34:13;;;;;;;3.20;0.52;;;9.90;99.90;;;;;;5110968;28;20032;-83
2023/11/03 03:36:39;;;;;;;1.00;0.38;;;9.80;99.90;;;;;;5110503;28;20139;-85
2023/11/03 03:39:05;;;;;;;3.97;0.57;;;9.80;99.90;;;;;;5111013;28;20372;-83
2023/11/03 03:41:30;;;;;;;2.88;0.55;;;9.80;99.90;;;;;;5110736;28;20024;-84
2023/11/03 03:43:56;;;;;;;4.10;0.50;;;9.80;99.90;;;;;;5092411;28;20153;-83
2023/11/03 03:46:22;;;;;;;2.80;0.47;;;9.80;99.90;;;;;;5109732;28;20479;-83
2023/11/03 03:48:47;;;;;;;3.75;0.70;;;9.80;99.90;;;;;;5101232;28;20016;-84
2023/11/03 03:51:13;;;;;;;1.55;0.40;;;9.90;99.90;;;;;;5079128;28;20020;-83
2023/11/03 03:53:38;;;;;;;4.57;0.80;;;9.80;99.90;;;;;;5079661;28;20016;-84
2023/11/03 03:56:04;;;;;;;1.65;0.55;;;9.80;99.90;;;;;;5078672;28;20330;-83
2023/11/03 03:58:30;;;;;;;3.25;0.82;;;9.80;99.90;;;;;;5095693;28;20035;-84
2023/11/03 04:00:55;;;;;;;3.42;0.60;;;9.80;99.90;;;;;;5078437;28;20028;-84
2023/11/03 04:03:21;;;;;;;5.80;0.93;;;9.80;99.90;;;;;;5078939;28;20089;-84
2023/11/03 04:05:47;;;;;;;3.28;0.90;;;9.80;99.90;;;;;;5078392;28;20020;-85
2023/11/03 04:08:12;;;;;;;2.05;0.50;;;9.80;99.90;;;;;;5079130;28;20046;-84
2023/11/03 04:10:38;;;;;;;2.00;0.55;;;9.80;99.90;;;;;;5096686;28;20042;-84
2023/11/03 04:13:03;;;;;;;5.90;0.80;;;9.80;99.90;;;;;;5078380;28;20031;-84
2023/11/03 04:15:29;;;;;;;5.20;0.80;;;9.90;99.90;;;;;;5079071;28;20020;-84
2023/11/03 04:17:55;;;;;;;4.50;0.63;;;9.80;99.90;;;;;;5078288;28;20024;-84
2023/11/03 04:20:20;;;;;;;2.40;0.82;;;9.80;99.90;;;;;;5096697;28;20392;-84
2023/11/03 04:22:46;;;;;;;12.88;2.22;;;9.80;99.90;;;;;;5078080;28;20024;-84
2023/11/03 04:25:11;;;;;;;3.03;0.82;;;9.80;99.90;;;;;;5096147;28;20407;-85
2023/11/03 04:27:37;;;;;;;3.10;0.55;;;9.80;99.90;;;;;;5078659;28;20035;-84
2023/11/03 04:30:03;;;;;;;5.38;2.08;;;9.90;99.90;;;;;;5077874;28;20028;-84
2023/11/03 04:32:29;;;;;;;2.22;0.73;;;9.90;99.90;;;;;;5078202;28;20042;-84
2023/11/03 04:34:55;;;;;;;5.65;1.00;;;9.80;99.90;;;;;;5094733;28;20024;-84
2023/11/03 04:37:20;;;;;;;4.47;0.70;;;9.90;99.90;;;;;;5074491;28;20067;-85
2023/11/03 04:39:46;;;;;;;3.35;0.93;;;9.80;99.90;;;;;;5075673;28;20024;-84
2023/11/03 04:42:11;;;;;;;3.42;0.80;;;9.90;99.90;;;;;;5075817;28;20031;-84
2023/11/03 04:44:37;;;;;;;5.20;0.90;;;9.80;99.90;;;;;;5074704;28;20020;-84
2023/11/03 04:47:03;;;;;;;4.72;1.63;;;9.80;99.90;;;;;;5074161;28;20532;-83
2023/11/03 04:49:30;;;;;;;2.80;0.70;;;9.80;99.90;;;;;;5074701;28;20036;-83
2023/11/03 04:51:56;;;;;;;3.88;0.70;;;9.80;99.90;;;;;;5074154;28;20065;-84
2023/11/03 04:54:21;;;;;;;5.25;1.00;;;9.80;99.90;;;;;;5074137;28;20024;-83
2023/11/03 04:56:47;;;;;;;5.18;1.00;;;9.80;99.90;;;;;;5073942;28;20039;-84
2023/11/03 04:59:12;;;;;;;4.97;0.70;;;9.70;99.90;;;;;;5074169;28;20021;-83
2023/11/03 05:01:38;;;;;;;5.13;0.82;;;9.70;99.90;;;;;;5073923;28;20020;-83
2023/11/03 05:04:04;;;;;;;2.60;0.60;;;9.70;99.90;;;;;;5073925;28;20334;-83
2023/11/03 05:06:29;;;;;;;2.08;0.60;;;9.70;99.90;;;;;;5075131;28;20085;-83
2023/11/03 05:08:55;;;;;;;5.50;1.35;;;9.80;99.90;;;;;;5074841;28;20105;-83
2023/11/03 05:11:21;;;;;;;2.92;0.45;;;9.70;99.90;;;;;;5075224;28;20020;-83
2023/11/03 05:13:48;;;;;;;1.98;0.57;;;9.70;99.90;;;;;;5073639;28;20024;-83
2023/11/03 05:16:13;;;;;;;2.50;0.80;;;9.70;99.90;;;;;;5073969;28;20028;-83
2023/11/03 05:18:40;;;;;;;3.55;0.73;;;9.70;99.90;;;;;;5073974;28;20063;-83
2023/11/03 05:21:06;;;;;;;5.10;0.93;;;9.80;99.90;;;;;;5073442;28;20352;-83
2023/11/03 05:23:31;;;;;;;5.55;0.85;;;9.70;99.90;;;;;;5074103;28;20039;-83
2023/11/03 05:25:57;;;;;;;3.10;0.82;;;9.70;99.90;;;;;;5074459;28;20439;-83
2023/11/03 05:28:22;;;;;;;0.95;0.47;;;9.70;99.90;;;;;;5073960;28;20107;-83
2023/11/03 05:30:48;;;;;;;3.53;0.50;;;9.70;99.90;;;;;;5072920;28;20042;-84
2023/11/03 05:33:17;;;;;;;5.18;0.65;;;9.70;99.90;;;;;;5073925;28;20024;-83
2023/11/03 05:35:44;;;;;;;5.07;0.80;;;9.80;99.90;;;;;;5073691;28;20025;-83
2023/11/03 05:38:10;;;;;;;3.45;0.77;;;9.80;99.90;;;;;;5094301;28;20469;-84
2023/11/03 05:40:35;;;;;;;3.20;0.40;;;9.80;99.90;;;;;;5094793;28;20027;-83
2023/11/03 05:43:01;;;;;;;4.55;0.65;;;9.80;99.90;;;;;;5076522;28;20020;-83
2023/11/03 05:45:27;;;;;;;3.75;0.57;;;9.80;99.90;;;;;;5077019;28;20023;-83
2023/11/03 05:47:54;;;;;;;1.63;0.60;;;9.80;99.90;;;;;;5076716;28;20057;-83
2023/11/03 05:50:20;;;;;;;4.40;0.60;;;9.80;99.90;;;;;;5094922;28;20012;-83
2023/11/03 05:52:45;;;;;;;1.63;0.43;;;9.70;99.90;;;;;;5076696;28;20024;-83
2023/11/03 05:55:11;;;;;;;2.45;0.80;;;9.70;99.90;;;;;;5076189;28;20016;-83
2023/11/03 05:57:36;;;;;;;3.88;0.60;;;9.70;99.90;;;;;;5076716;28;20032;-83
2023/11/03 06:00:08;;;;;;;5.95;0.70;;;9.70;99.90;;;;;;5093223;28;20020;-83
2023/11/03 06:02:36;;;;;;;;;;;9.70;99.90;;;;;;5077216;28;20020;-83
2023/11/03 06:05:03;;;;;;;2.13;0.60;;;9.70;99.90;;;;;;5076153;28;19907;-83
2023/11/03 06:07:29;;;;;;;7.00;0.50;;;9.70;99.90;;;;;;5076724;28;20031;-83
2023/11/03 06:09:55;;;;;;;1.20;0.40;;;9.70;99.90;;;;;;5076368;28;20476;-83
2023/11/03 06:12:21;;;;;;;3.25;0.65;;;9.70;99.90;;;;;;5076424;28;20024;-83
2023/11/03 06:14:47;;;;;;;7.07;1.00;;;9.70;99.90;;;;;;5076626;28;20020;-83
2023/11/03 06:17:12;;;;;;;6.00;0.80;;;9.70;99.90;;;;;;5093849;28;20384;-83
2023/11/03 06:19:38;;;;;;;1.90;0.57;;;9.70;99.90;;;;;;5094335;28;20154;-83
2023/11/03 06:22:03;;;;;;;5.68;1.08;;;9.70;99.90;;;;;;5092776;28;20020;-83
2023/11/03 06:24:29;;;;;;;4.57;0.80;;;9.70;99.90;;;;;;5093181;28;20027;-82
2023/11/03 06:26:59;;;;;;;3.08;0.68;;;9.70;99.90;;;;;;5075812;28;20039;-83
2023/11/03 06:29:26;;;;;;;2.33;0.60;;;9.60;99.90;;;;;;5076281;28;20024;-83
2023/11/03 06:31:51;;;;;;;2.53;0.50;;;9.70;99.90;;;;;;5094077;28;20012;-84
2023/11/03 06:34:17;;;;;;;2.33;0.50;;;9.70;99.90;;;;;;5076751;28;20024;-82
2023/11/03 06:36:42;;;;;;;2.35;0.60;;;9.70;99.90;;;;;;5093754;28;20054;-82
2023/11/03 06:39:08;;;;;;;2.80;0.80;;;9.70;99.90;;;;;;5075544;28;20020;-83
2023/11/03 06:41:34;;;;;;;3.83;0.90;;;9.60;99.90;;;;;;5076268;28;20024;-82
2023/11/03 06:44:01;;;;;;;3.05;0.70;;;9.60;99.90;;;;;;5093483;28;20024;-82
2023/11/03 06:46:27;;;;;;;2.78;0.70;;;9.60;99.90;;;;;;5075950;28;20032;-82
2023/11/03 06:48:53;;;;;;;2.97;1.05;;;9.70;99.90;;;;;;5093513;28;20174;-82
2023/11/03 06:51:18;;;;;;;3.42;0.60;;;9.60;99.90;;;;;;5093931;28;20346;-81
2023/11/03 06:53:44;;;;;;;2.35;0.55;;;9.60;99.90;;;;;;5094011;28;20024;-82
2023/11/03 06:56:10;;;;;;;2.13;0.68;;;9.70;99.90;;;;;;5075623;28;20053;-83
2023/11/03 06:58:36;;;;;;;5.03;0.85;;;9.70;99.90;;;;;;5094231;28;20020;-83
2023/11/03 07:01:04;;;;;;;4.85;0.50;;;9.70;99.90;;;;;;5075579;28;20045;-83
2023/11/03 07:03:30;;;;;;;1.13;0.50;;;9.60;99.90;;;;;;5094196;28;20083;-83
2023/11/03 07:05:56;;;;;;;2.85;0.57;;;9.60;99.90;;;;;;5075634;28;20106;-83
2023/11/03 07:08:22;;;;;;;4.28;0.88;;;9.60;99.90;;;;;;5093133;28;20066;-83
2023/11/03 07:10:47;;;;;;;5.15;0.60;;;9.60;99.90;;;;;;5092850;28;20452;-83
2023/11/03 07:13:13;;;;;;;3.50;0.60;;;9.60;99.90;;;;;;5075541;28;20020;-83
2023/11/03 07:15:39;;;;;;;4.75;1.58;;;9.60;99.90;;;;;;5075879;28;20506;-82
2023/11/03 07:18:04;;;;;;;2.13;1.15;;;9.70;99.90;;;;;;5092332;28;20445;-82
2023/11/03 07:20:31;;;;;;;3.80;0.70;;;9.60;99.90;;;;;;5093897;28;20016;-83
2023/11/03 07:22:57;;;;;;;2.83;0.70;;;9.60;99.90;;;;;;5075769;28;20024;-83
2023/11/03 07:25:25;;;;;;;4.70;0.70;;;9.70;99.90;;;;;;5079599;28;20027;-83
2023/11/03 07:27:51;;;;;;;4.55;0.55;;;9.70;99.90;;;;;;5079605;28;20028;-83
2023/11/03 07:30:16;;;;;;;1.58;0.55;;;9.70;99.90;;;;;;5096735;28;20103;-83
2023/11/03 07:32:44;;;;;;;1.77;0.57;;;9.70;99.90;;;;;;5079486;28;20105;-83
2023/11/03 07:35:11;;;;;;;6.45;1.05;;;9.70;99.90;;;;;;5095850;28;20020;-82
2023/11/03 07:37:37;;;;;;;4.13;0.68;;;9.80;99.90;;;;;;5078892;28;20473;-83
2023/11/03 07:40:05;;;;;;;3.58;0.70;;;9.80;99.90;;;;;;5096781;28;20023;-85
2023/11/03 07:42:31;;;;;;;2.15;0.80;;;9.80;99.90;;;;;;5078910;28;20065;-85
2023/11/03 07:44:56;;;;;;;2.20;0.55;;;9.80;99.90;;;;;;5096301;28;20028;-84
2023/11/03 07:47:22;;;;;;;5.53;0.98;;;9.80;99.90;;;;;;5078964;28;20042;-84
2023/11/03 07:49:49;;;;;;;4.78;0.82;;;9.90;99.90;;;;;;5078424;28;20030;-82
2023/11/03 07:52:15;;;;;;;3.92;0.70;;;9.90;99.90;;;;;;5078326;28;20038;-83
2023/11/03 07:54:41;;;;;;;5.72;0.70;;;9.90;99.90;;;;;;5096899;28;20099;-86
2023/11/03 07:57:07;;;;;;;1.95;0.70;;;9.90;99.90;;;;;;5078556;28;20530;-86
2023/11/03 07:59:32;;;;;;;1.60;0.60;;;9.90;99.90;;;;;;5079239;28;20020;-86
2023/11/03 08:01:58;;;;;;;2.38;0.80;;;10.00;99.90;;;;;;5095707;28;20069;-84
2023/11/03 08:04:24;;;;;;;2.83;0.50;;;10.00;99.90;;;;;;5076111;28;20024;-83
2023/11/03 08:06:49;;;;;;;3.00;0.60;;;10.00;99.90;;;;;;5077758;28;20028;-82
2023/11/03 08:09:17;;;;;;;2.42;0.70;;;10.00;99.90;;;;;;5075624;28;20016;-83
2023/11/03 08:11:43;;;;;;;1.92;0.60;;;10.00;99.90;;;;;;5087107;28;20133;-83
2023/11/03 08:14:09;;;;;;;1.85;0.60;;;10.10;99.90;;;;;;5079217;28;20054;-86
2023/11/03 08:16:34;;;;;;;2.17;0.80;;;10.00;99.90;;;;;;5095006;28;20475;-86
2023/11/03 08:19:01;;;;;;;2.40;0.50;;;10.10;99.90;;;;;;5088775;28;20016;-85
2023/11/03 08:21:26;;;;;;;4.57;0.88;;;10.10;99.90;;;;;;5085485;28;20030;-85
2023/11/03 08:23:52;;;;;;;3.22;0.70;;;10.10;99.90;;;;;;5090804;28;20107;-84
2023/11/03 08:26:18;;;;;;;3.53;0.75;;;10.20;99.90;;;;;;5077848;28;20060;-85
2023/11/03 08:28:45;;;;;;;1.02;0.43;;;10.20;99.90;;;;;;5081373;28;20103;-87
2023/11/03 08:31:12;;;;;;;4.03;0.73;;;10.20;99.90;;;;;;5086961;28;20111;-86
2023/11/03 08:33:37;;;;;;;1.65;0.40;;;10.20;99.90;;;;;;5095240;28;20020;-88
2023/11/03 08:36:04;;;;;;;2.45;0.65;;;10.10;99.90;;;;;;5076709;28;20085;-82
2023/11/03 08:38:33;;;;;;;0.90;0.40;;;10.20;99.90;;;;;;5093310;28;20020;-85
2023/11/03 08:40:58;;;;;;;4.50;0.57;;;10.20;99.90;;;;;;5082808;28;20069;-85
2023/11/03 08:43:24;;;;;;;2.25;0.70;;;10.20;99.90;;;;;;5095529;28;20020;-85
2023/11/03 08:45:50;;;;;;;3.60;0.77;;;10.20;99.90;;;;;;5095597;28;20031;-87
2023/11/03 08:48:16;;;;;;;1.27;0.60;;;10.30;99.90;;;;;;5095113;28;20389;-86
2023/11/03 08:50:42;;;;;;;4.18;0.60;;;10.30;99.90;;;;;;5095772;28;20023;-87
2023/11/03 08:53:07;;;;;;;1.45;0.80;;;10.40;99.90;;;;;;5083685;28;20020;-85
2023/11/03 08:55:33;;;;;;;3.63;0.68;;;10.30;99.90;;;;;;5083714;28;20016;-86
2023/11/03 08:57:59;;;;;;;1.45;0.70;;;10.40;99.90;;;;;;5094668;28;20050;-86
2023/11/03 09:00:25;;;;;;;3.35;0.88;;;10.40;99.90;;;;;;5093460;28;20103;-86
2023/11/03 09:02:51;;;;;;;3.13;0.93;;;10.50;99.90;;;;;;5094954;28;20020;-88
2023/11/03 09:05:17;;;;;;;4.00;0.68;;;10.50;99.90;;;;;;5084760;28;20024;-84
2023/11/03 09:07:44;;;;;;;3.00;0.50;;;10.60;99.90;;;;;;5080372;28;20176;-86
2023/11/03 09:10:11;;;;;;;3.70;0.65;;;10.60;99.90;;;;;;5094503;28;20012;-88
2023/11/03 09:12:38;;;;;;;2.08;0.63;;;10.60;99.90;;;;;;5094725;28;20085;-88
2023/11/03 09:15:05;;;;;;;2.63;0.80;;;10.70;99.90;;;;;;5087250;28;20028;-87
2023/11/03 09:17:31;;;;;;;1.95;0.60;;;10.60;99.90;;;;;;5076865;28;20453;-85
2023/11/03 09:19:58;;;;;;;2.85;0.50;;;10.60;99.90;;;;;;5081103;28;20461;-84
2023/11/03 09:22:27;;;;;;;1.52;0.63;;;10.60;99.90;;;;;;5095117;28;20506;-86
2023/11/03 09:24:56;;;;;;;5.55;0.70;;;10.60;99.90;;;;;;5081748;28;20048;-85
2023/11/03 09:27:25;;;;;;;4.25;0.77;;;10.70;99.90;;;;;;5094257;28;20032;-85
2023/11/03 09:29:50;;;;;;;6.78;0.80;;;10.70;99.90;;;;;;5089001;28;20039;-87
2023/11/03 09:32:17;;;;;;;2.85;0.70;;;10.70;99.90;;;;;;5076127;28;20449;-88
2023/11/03 09:34:43;;;;;;;2.30;0.60;;;10.70;99.90;;;;;;5090170;28;20445;-88
2023/11/03 09:37:08;;;;;;;2.92;0.70;;;10.70;99.90;;;;;;5104605;28;20073;-85
2023/11/03 09:39:35;;;;;;;1.38;0.60;;;10.70;99.90;;;;;;5111792;28;20036;-86
2023/11/03 09:42:03;;;;;;;2.80;0.80;;;10.60;99.90;;;;;;5095388;28;20020;-88
2023/11/03 09:44:30;;;;;;;2.88;0.60;;;10.60;99.90;;;;;;5091254;28;20045;-85
2023/11/03 09:46:59;;;;;;;5.63;0.55;;;10.70;99.90;;;;;;5100453;28;20039;-86
2023/11/03 09:49:25;;;;;;;3.63;0.95;;;10.70;99.90;;;;;;5102141;28;20039;-86
2023/11/03 09:51:50;;;;;;;2.40;0.60;;;10.70;99.90;;;;;;5108322;28;20024;-88
2023/11/03 09:54:16;;;;;;;1.45;0.80;;;10.80;99.90;;;;;;5095033;28;20031;-88
2023/11/03 09:56:46;;;;;;;2.33;0.73;;;10.70;99.90;;;;;;5112849;28;20020;-87
2023/11/03 09:59:17;;;;;;;2.38;0.75;;;10.80;99.90;;;;;;5095865;28;20031;-89
2023/11/03 10:01:43;;;;;;;1.83;0.52;;;10.80;99.90;;;;;;5116378;28;20085;-84
2023/11/03 10:04:09;;;;;;;3.30;0.60;;;10.70;99.90;;;;;;5081187;28;20036;-84
2023/11/03 10:06:37;;;;;;;3.50;0.70;;;10.70;99.90;;;;;;5097617;28;20342;-85
2023/11/03 10:09:03;;;;;;;0.90;0.50;;;10.90;99.90;;;;;;5093393;28;20062;-86
2023/11/03 10:11:29;;;;;;;1.35;0.50;;;10.80;99.90;;;;;;5082947;28;20456;-85
2023/11/03 10:13:54;;;;;;;1.58;0.60;;;10.80;99.90;;;;;;5089140;28;20020;-85
2023/11/03 10:16:21;;;;;;;3.08;0.60;;;10.80;99.90;;;;;;5058880;28;20048;-85
2023/11/03 10:18:46;;;;;;;5.32;0.80;;;10.80;99.90;;;;;;5089043;28;20027;-86
2023/11/03 10:21:13;;;;;;;2.85;0.60;;;10.90;99.90;;;;;;5082788;28;20021;-83
2023/11/03 10:23:38;;;;;;;2.67;0.60;;;10.80;99.90;;;;;;5091750;28;20016;-84
2023/11/03 10:26:05;;;;;;;1.95;0.50;;;10.80;99.90;;;;;;5093387;28;20023;-84
2023/11/03 10:28:32;;;;;;;1.45;0.68;;;10.90;99.90;;;;;;5086414;28;20024;-86
2023/11/03 10:30:59;;;;;;;3.28;0.70;;;10.90;99.90;;;;;;5093562;28;20023;-82
2023/11/03 10:33:26;;;;;;;1.58;0.47;;;10.90;99.90;;;;;;5083160;28;20020;-86
2023/11/03 10:35:52;;;;;;;2.17;0.73;;;10.90;99.90;;;;;;5095376;28;20016;-83
2023/11/03 10:38:20;;;;;;;2.33;0.50;;;10.90;99.90;;;;;;5075419;28;20028;-83
2023/11/03 10:40:54;;;;;;;2.70;0.57;;;10.90;99.90;;;;;;5093424;28;20137;-84
2023/11/03 10:43:23;;;;;;;2.90;0.43;;;10.90;99.90;;;;;;5092681;28;20054;-84
2023/11/03 10:46:18;;;;;;;1.40;0.40;;;11.00;99.90;;;;;;5075297;28;20046;-84
2023/11/03 10:48:55;;;;;;;3.13;0.60;;;11.10;99.90;;;;;;5065906;28;20441;-85
2023/11/03 10:51:24;;;;;;;1.90;0.45;;;11.00;99.90;;;;;;5074947;28;20480;-87
2023/11/03 10:54:27;;;;;;;2.75;0.90;;;11.00;99.90;;;;;;5076169;28;20096;-86
2023/11/03 10:56:54;;;;;;;2.58;0.70;;;11.10;99.90;;;;;;5085131;28;20111;-87
2023/11/03 10:59:21;;;;;;;1.33;0.30;;;11.00;99.90;;;;;;5077533;28;20028;-86
2023/11/03 11:02:19;;;;;;;0.50;0.50;;;11.00;99.90;;;;;;5092039;28;20028;-86
2023/11/03 11:04:59;;;;;;;2.55;0.40;;;11.00;99.90;;;;;;5022161;28;20029;-86
2023/11/03 11:07:27;;;;;;;1.17;0.60;;;11.00;99.90;;;;;;5094695;28;20032;-85
2023/11/03 11:09:55;;;;;;;4.20;0.68;;;11.00;99.90;;;;;;5079284;28;20094;-86
2023/11/03 11:12:20;;;;;;;2.78;0.70;;;11.00;99.90;;;;;;5065722;28;20027;-85
2023/11/03 11:14:48;;;;;;;2.78;0.60;;;11.00;99.90;;;;;;5096259;28;20023;-85
2023/11/03 11:17:23;;;;;;;3.60;0.77;;;11.10;99.90;;;;;;5096616;28;20024;-85
2023/11/03 11:19:54;;;;;;;2.50;0.68;;;11.00;99.90;;;;;;5089320;28;20027;-85
2023/11/03 11:22:22;;;;;;;5.10;0.47;;;11.00;99.90;;;;;;5078492;28;20463;-83
2023/11/03 11:24:51;;;;;;;3.80;0.55;;;10.90;99.90;;;;;;5091861;28;20024;-84
2023/11/03 11:27:24;;;;;;;4.05;0.55;;;11.00;99.90;;;;;;5086729;28;20032;-84
2023/11/03 11:30:00;;;;;;;1.20;0.50;;;11.00;99.90;;;;;;5096792;28;20023;-84
2023/11/03 11:32:26;;;;;;;0.65;0.47;;;11.10;99.90;;;;;;5080969;28;20027;-86
2023/11/03 11:34:53;;;;;;;1.65;0.40;;;11.10;99.90;;;;;;5096758;28;20017;-85
2023/11/03 11:37:31;;;;;;;2.10;0.60;;;11.10;99.90;;;;;;5095984;28;20105;-86
2023/11/03 11:40:05;;;;;;;2.55;0.50;;;11.10;99.90;;;;;;5078679;28;20373;-85
2023/11/03 11:42:35;;;;;;;4.85;0.80;;;11.10;99.90;;;;;;5080603;28;20069;-82
2023/11/03 11:45:02;;;;;;;3.42;0.60;;;11.10;99.90;;;;;;5089430;28;20024;-85
2023/11/03 11:47:32;;;;;;;1.08;0.55;;;11.00;99.90;;;;;;5078394;28;20035;-85
2023/11/03 11:49:59;;;;;;;2.85;0.55;;;11.00;99.90;;;;;;5086478;28;20026;-83
2023/11/03 11:52:26;;;;;;;2.10;0.55;;;11.00;99.90;;;;;;5079401;28;20024;-84
2023/11/03 11:54:56;;;;;;;3.13;0.70;;;11.00;99.90;;;;;;5091208;28;20012;-84
2023/11/03 11:57:24;;;;;;;2.47;0.60;;;10.90;99.90;;;;;;5086329;28;20044;-82
2023/11/03 11:59:53;;;;;;;2.63;0.70;;;11.00;99.90;;;;;;5096427;28;20094;-83
2023/11/03 12:02:20;;;;;;;0.75;0.30;;;10.90;99.90;;;;;;5077871;28;20024;-83
2023/11/03 12:04:53;;;;;;;1.70;0.73;;;10.90;99.90;;;;;;5082205;28;20027;-82
2023/11/03 12:07:22;;;;;;;1.02;0.40;;;10.90;99.90;;;;;;5085994;28;20089;-84
2023/11/03 12:09:53;;;;;;;1.05;0.50;;;10.90;99.90;;;;;;5082379;28;20032;-86
2023/11/03 12:12:20;;;;;;;0.65;0.40;;;10.90;99.90;;;;;;5082741;28;20103;-84
2023/11/03 12:14:47;;;;;;;2.58;0.60;;;10.90;99.90;;;;;;5082140;28;20047;-84
2023/11/03 12:17:19;;;;;;;1.00;0.40;;;10.90;99.90;;;;;;5087010;28;20078;-84
2023/11/03 12:19:46;;;;;;;;;;;10.90;99.90;;;;;;5090622;28;20047;-84
2023/11/03 12:22:26;;;;;;;34.35;8.65;;;10.90;99.90;;;;;;5078937;28;19900;-84
2023/11/03 12:24:54;;;;;;;100.35;29.95;;;10.90;99.90;;;;;;5090462;28;20083;-84
2023/11/03 12:27:24;;;;;;;29.17;8.57;;;10.80;99.90;;;;;;5102721;28;20372;-84
2023/11/03 12:29:51;;;;;;;22.83;7.47;;;10.80;99.90;;;;;;5082227;28;20111;-83
2023/11/03 12:32:17;;;;;;;15.18;4.55;;;10.90;99.90;;;;;;5093722;28;20016;-82
2023/11/03 12:34:45;;;;;;;5.13;2.30;;;10.90;99.90;;;;;;5095971;28;20497;-83
2023/11/03 12:37:12;;;;;;;5.63;1.48;;;10.90;99.90;;;;;;5086667;28;20052;-84
2023/11/03 12:39:50;;;;;;;4.10;0.93;;;10.90;99.90;;;;;;5095504;28;20026;-83
2023/11/03 12:42:17;;;;;;;2.45;0.90;;;11.00;99.90;;;;;;5077442;28;20036;-82
2023/11/03 12:44:53;;;;;;;3.45;0.73;;;11.00;99.90;;;;;;5081077;28;20530;-82
2023/11/03 12:47:38;;;;;;;3.70;0.60;;;11.20;99.90;;;;;;5093692;28;20062;-82
2023/11/03 12:50:17;;;;;;;4.00;0.73;;;11.30;99.90;;;;;;5079150;28;20020;-85
2023/11/03 12:52:47;;;;;;;2.00;0.50;;;11.50;99.90;;;;;;5090498;28;20472;-84